Urb Coco Beach, Puerto Rico
Current Conditions -  °F | °C
As of 7:56 PM on Thursday 27 Nov 2014 (Local Time) from TJSJ Reporting Station
Clear Clear  
Wind Chill: 78°   Ceiling: Unl
Heat Index: 80°   Visibility: 10mi
Dew Point: 71°   Wind: 3mph
Humidity: 79%   Direction: 100°E
Pressure: 29.96"   Gusts: NA
Location:  18.3817°N, 65.8302°W
Report Text: TJSJ 272356Z 10003KT 10SM CLR 26/22 A2996 RMK AO2 SLP143 T02560217 10294 20256 53009
Loading
Personal Weather Stations






























Interactive Weather Map New forecast layout! Learn more

10-Day Weather Forecast

Advertisements
Track Severe Weather on mobile